Sarcobatus Flat, Nevada Weather observations

Data are for observation ending at time listed.
 Day   Time    Ave.   Ave.  Ave.  Vector   Max.   Stn.    Total    Solar   Ave.  
  of    of     Air    Rel.  Wind   Wind    Wind   Baro.  Precip.   Rad.    Soil  
Year   Day     Temp.  Hum.  Speed  Dir.    Gust   Pres.                    Temp. 
2014   (PST)    F      %     mph   deg.    mph     mb.     in.     W/m2     F   
------------------------------------------------------------------------------
 353    9:20   38.0    82    2.1   229      3.4   885.0    0.00     357    999.0
 353    9:30   38.5    81    2.1   224      3.1   884.9    0.00     345    999.0
 353    9:40   39.1    80    1.9   250      3.4   884.9    0.00     416    999.0
 353    9:50   40.4    77    1.7   246      4.1   884.9    0.00     421    999.0
 353   10:00   42.3    72    0.9   253      2.1   884.9    0.00     436    999.0
 353   10:10   43.0    70    1.0   239      2.9   884.8    0.00     394    999.0
 353   10:20   43.6    69    1.0   194      3.2   884.8    0.00     416    999.0
 353   10:30   43.9    68    2.0   180      4.3   884.6    0.00     498    999.0
 353   10:40   43.7    69    2.0   148      4.6   884.5    0.00     507    999.0
 353   10:50   44.4    68    0.9   136      4.7   884.4    0.00     460    999.0
 353   11:00   43.2    71    2.7   157      4.5   884.3    0.00     336    999.0
 353   11:10   43.0    71    3.6   178      6.2   884.2    0.00     365    999.0
 353   11:20   43.0    71    3.9   162      6.1   884.0    0.00     296    999.0
 353   11:30   42.7    71    4.4   151      6.9   883.8    0.00     277    999.0
 353   11:40   42.9    72    4.6   133      7.3   883.7    0.00     256    999.0
 353   11:50   43.4    71    4.5   146      8.8   883.4    0.00     214    999.0
 353   12:00   43.7    70    5.9   167      8.3   883.2    0.00     181    999.0
 353   12:10   43.7    70    6.8   189      9.7   883.1    0.00     156    999.0
 353   12:20   43.8    70    4.6   174      8.0   882.9    0.00     224    999.0
 353   12:30   44.2    68    4.2   197      6.2   882.8    0.00     284    999.0
 353   12:40   44.7    68    4.2   212      7.8   882.8    0.00     268    999.0
 353   12:50   44.5    68    4.6   213      7.7   882.7    0.00     184    999.0
 353   13:00   44.6    69    4.1   206      6.7   882.6    0.00     150    999.0
 353   13:10   44.7    68    3.9   211      6.6   882.5    0.00     183    999.0
 353   13:20   44.9    68    4.8   193      6.8   882.3    0.00     196    999.0
 353   13:30   45.5    67    4.1   222      7.0   882.5    0.00     181    999.0
 353   13:40   44.8    68    5.7   255      7.5   882.6    0.00      98    999.0
 353   13:50   44.6    69    4.8   250      6.9   882.6    0.00      81    999.0
 353   14:00   44.4    69    4.9   268      7.2   882.7    0.00      69    999.0
 353   14:10   44.3    70    4.6   265      6.5   882.7    0.00      51    999.0
 353   14:20   44.1    70    4.6   264      6.4   882.7    0.00      53    999.0
 353   14:30   44.1    70    4.3   260      6.1   882.7    0.00      46    999.0
 353   14:40   44.1    70    3.5   262      4.9   882.8    0.00      36    999.0
 353   14:50   44.2    69    1.7   255      2.9   882.9    0.00      26    999.0
 353   15:00   44.4    69    0.9   243      2.3   883.0    0.00      21    999.0
 353   15:10   44.3    69    0.4   242      2.2   883.1    0.00      19    999.0
 353   15:20   44.4    69    0.6   264      2.4   883.3    0.00      16    999.0
 353   15:30   44.1    70    2.3   311      3.6   883.3    0.00      13    999.0
 353   15:40   44.1    70    0.5   316      1.7   883.2    0.00      12    999.0
 353   15:50   44.1    72    0.0   316      0.1   883.1    0.00      11    999.0
 353   16:00   44.0    72    0.0   316      0.5   883.0    0.00       9    999.0
 353   16:10   43.9    72    0.5   315      1.3   882.9    0.00       8    999.0
 353   16:20   43.9    74    0.0     0      0.0   882.9    0.00       8    999.0
 353   16:30   43.6    76    1.4   240      2.9   882.9    0.00       4    999.0
 353   16:40   43.3    78    2.4   242      3.2   883.1    0.00       1    999.0
 353   16:50   43.2    78    1.6   237      2.6   883.0    0.00       0    999.0
 353   17:00   43.1    79    0.8   233      1.2   882.9    0.00       0    999.0
 353   17:10   43.1    79    0.7   233      1.4   882.9    0.00       0    999.0
 353   17:20   42.9    80    0.2   235      0.9   882.9    0.00       0    999.0
 353   17:30   42.7    82    0.7   235      1.0   882.8    0.00       0    999.0
 353   17:40   42.5    83    1.3   233      1.8   882.8    0.00       0    999.0
 353   17:50   42.3    84    1.5   233      1.8   882.9    0.00       0    999.0
 353   18:00   42.3    84    1.0   235      1.4   883.0    0.00       0    999.0
 353   18:10   42.0    85    0.5   235      1.2   883.0    0.00       0    999.0
 353   18:20   41.9    85    0.2   242      1.3   882.9    0.00       0    999.0
 353   18:30   41.8    85    0.8   249      1.6   883.0    0.00       0    999.0
 353   18:40   41.7    85    1.2   250      1.8   882.9    0.00       0    999.0
 353   18:50   41.6    85    1.1   250      1.5   883.0    0.00       0    999.0
 353   19:00   41.5    86    1.0   250      1.5   883.1    0.00       0    999.0
 353   19:10   41.2    86    0.2   250      0.9   883.1    0.00       0    999.0
 353   19:20   41.1    86    0.8   261      1.6   883.2    0.00       0    999.0
 353   19:30   41.2    86    0.2   339      0.7   883.1    0.00       0    999.0
 353   19:40   41.1    87    0.7   352      3.0   883.1    0.00       0    999.0
 353   19:50   41.0    88    2.2    21      3.0   883.4    0.00       0    999.0
 353   20:00   40.9    87    2.5    13      3.1   883.5    0.00       0    999.0
 353   20:10   41.0    87    2.3    24      3.5   883.6    0.00       0    999.0
 353   20:20   41.1    86    1.8    25      2.7   883.6    0.00       0    999.0
 353   20:30   41.1    86    1.3    29      1.9   883.7    0.00       0    999.0
 353   20:40   40.9    86    1.6    32      2.3   883.6    0.00       0    999.0
 353   20:50   40.7    87    1.6    32      2.3   883.5    0.00       0    999.0
 353   21:00   40.6    87    1.4    32      1.8   883.5    0.00       0    999.0
 353   21:10   40.1    88    1.2    32      3.1   883.4    0.00       0    999.0
 353   21:20   39.6    89    2.4   250      3.7   883.3    0.00       0    999.0
 353   21:30   39.6    89    2.2   249      3.3   883.3    0.00       0    999.0
 353   21:40   39.6    88    3.4   253      4.2   883.3    0.00       0    999.0
 353   21:50   39.6    89    1.5   262      3.1   883.2    0.00       0    999.0
 353   22:00   39.7    88    1.2   254      2.2   883.1    0.00       0    999.0
 353   22:10   39.9    87    2.2   265      3.5   883.1    0.00       0    999.0
 353   22:20   39.5    88    2.6    23      4.2   883.3    0.00       0    999.0
 353   22:30   39.6    88    3.1    18      4.7   883.4    0.00       0    999.0
 353   22:40   39.8    88    2.5     7      3.8   883.4    0.00       0    999.0
 353   22:50   39.7    88    1.6    11      2.8   883.4    0.00       0    999.0
 353   23:00   39.4    88    2.4   331      3.5   883.7    0.00       0    999.0
 353   23:10   39.2    90    1.9    42      3.6   883.6    0.00       0    999.0
 353   23:20   39.4    89    0.9    96      2.1   883.7    0.00       0    999.0
 353   23:30   39.6    88    2.4   308      3.6   883.7    0.00       0    999.0
 353   23:40   39.7    87    2.9   308      3.7   883.6    0.00       0    999.0
 353   23:50   39.9    87    2.1   292      3.1   883.5    0.00       0    999.0
 354    0:00   39.4    88    1.4   299      2.4   883.3    0.00       0    999.0
 354    0:10   38.7    89    2.0   295      2.7   883.1    0.00       0    999.0
 354    0:20   38.6    89    1.1   292      2.8   883.0    0.00       0    999.0
 354    0:30   38.4    89    0.5   292      1.8   883.1    0.00       0    999.0
 354    0:40   38.2    89    0.0     0      0.0   883.2    0.00       0    999.0
 354    0:50   37.5    89    0.0   317      0.6   882.9    0.00       0    999.0
 354    1:00   36.8    90    0.5   317      2.3   882.8    0.00       0    999.0
 354    1:10   35.8    91    1.0   317      2.2   882.8    0.00       0    999.0
 354    1:20   35.2    92    0.7   317      1.9   882.7    0.00       0    999.0
 354    1:30   34.6    93    1.5   338      3.5   882.7    0.00       0    999.0
 354    1:40   34.2    93    3.0     7      3.9   882.7    0.00       0    999.0
 354    1:50   32.8    93    3.4   311      5.0   882.9    0.00       0    999.0
 354    2:00   32.9    93    3.5   342      4.5   883.0    0.00       0    999.0
 354    2:10   32.7    93    3.2   317      3.9   883.0    0.00       0    999.0
 354    2:20   32.4    92    3.4   325      4.6   883.1    0.00       0    999.0
 354    2:30   31.7    92    3.5   338      4.7   883.0    0.00       0    999.0
 354    2:40   32.1    93    2.0    39      4.1   882.8    0.00       0    999.0
 354    2:50   32.1    93    2.4   166      3.6   882.7    0.00       0    999.0
 354    3:00   31.4    94    3.1   178      4.2   882.6    0.00       0    999.0
 354    3:10   31.0    94    2.2   141      3.3   882.5    0.00       0    999.0
 354    3:20   31.0    95    2.5   137      3.6   882.3    0.00       0    999.0
 354    3:30   31.3    96    1.7   136      3.1   882.2    0.00       0    999.0
 354    3:40   31.3    96    0.5   149      1.7   882.3    0.00       0    999.0
 354    3:50   31.0    96    0.6   164      3.2   882.4    0.00       0    999.0
 354    4:00   31.3    96    3.3     2      5.6   882.6    0.00       0    999.0
 354    4:10   31.3    96    4.1   355      5.2   882.6    0.00       0    999.0
 354    4:20   31.0    96    3.7    14      5.1   882.5    0.00       0    999.0
 354    4:30   31.4    97    3.4     4      5.0   882.5    0.00       0    999.0
 354    4:40   31.1    96    1.6   307      3.4   882.4    0.00       0    999.0
 354    4:50   31.5    96    2.6   312      3.6   882.3    0.00       0    999.0
 354    5:00   31.8    96    3.8   327      5.8   882.3    0.00       0    999.0
 354    5:10   32.0    96    4.7   347      6.2   882.2    0.00       0    999.0
 354    5:20   31.6    95    2.3    13      3.9   882.1    0.00       0    999.0
 354    5:30   31.6    96    2.2    16      3.4   882.1    0.00       0    999.0
 354    5:40   31.7    95    3.0   359      3.8   882.0    0.00       0    999.0
 354    5:50   32.0    95    2.7   340      3.5   882.2    0.00       0    999.0
 354    6:00   32.4    95    2.8   336      4.2   882.5    0.00       0    999.0
 354    6:10   32.8    95    1.1   329      2.1   882.5    0.00       0    999.0
 354    6:20   32.8    94    0.4    39      3.3   882.5    0.00       0    999.0
 354    6:30   32.1    94    2.5   150      3.5   882.5    0.00       0    999.0
 354    6:40   32.0    95    1.1   157      1.9   882.6    0.00       0    999.0
 354    6:50   31.8    95    1.3   131      2.5   882.7    0.00       0    999.0
 354    7:00   32.0    95    0.0     0      0.0   882.9    0.00       2    999.0
 354    7:10   32.2    95    0.1   129      0.9   883.1    0.00       2    999.0
 354    7:20   32.5    95    0.1   129      0.7   883.3    0.00       6    999.0
 354    7:30   32.5    95    1.1    93      3.1   883.1    0.00      13    999.0
 354    7:40   32.5    95    1.4    55      2.5   883.0    0.00      25    999.0
 354    7:50   33.1    95    0.9    51      2.6   883.0    0.00      41    999.0
 354    8:00   33.2    94    3.0   104      4.1   882.6    0.00      49    999.0
 354    8:10   32.9    94    2.2   165      3.8   882.7    0.00      30    999.0
 354    8:20   32.9    94    2.3   197      3.5   882.9    0.00      30    999.0
 354    8:30   33.0    94    0.6   202      1.5   882.9    0.00      38    999.0
 354    8:40   33.3    93    0.8   290      2.9   883.1    0.00      55    999.0
 354    8:50   33.8    93    0.1   296      1.0   883.0    0.00      97    999.0
 354    9:00   34.3    92    0.9    93      2.7   883.1    0.00     125    999.0
 354    9:10   34.5    91    2.0   118      2.6   883.3    0.00     192    999.0

Return to Sarcobatus Flat, Nevada graphs page.


Western Regional Climate Center,wrcc@dri.edu